Time;durP1;ratioP1;P1;durP2;ratioP2;P2;SDS_P1;SDS_P2;PMS_P1;PMS_P2;Temp;Humidity;BMP_temperature;BMP_pressure;BME280_temperature;BME280_humidity;BME280_pressure;Samples;Min_cycle;Max_cycle;Signal;HPM_P1;HPM_P2
2023/09/15 00:00:40;;;;;;;20.45;9.73;;;;;;;17.03;100.00;94770.41;5034884;28;20350;-82
2023/09/15 00:03:06;;;;;;;17.80;8.88;;;;;;;17.06;100.00;94758.44;5035785;28;20048;-82
2023/09/15 00:05:33;;;;;;;19.08;9.73;;;;;;;16.77;100.00;94765.59;5036706;28;20025;-82
2023/09/15 00:08:00;;;;;;;15.43;8.80;;;;;;;16.89;100.00;94753.72;5035836;28;20025;-82
2023/09/15 00:10:26;;;;;;;16.60;9.07;;;;;;;16.95;100.00;94755.97;5051944;28;20358;-82
2023/09/15 00:12:52;;;;;;;16.65;8.70;;;;;;;16.81;100.00;94758.66;5035217;28;20098;-82
2023/09/15 00:15:17;;;;;;;16.92;8.73;;;;;;;16.59;100.00;94763.88;5036396;28;20030;-82
2023/09/15 00:17:44;;;;;;;15.75;9.98;;;;;;;16.28;100.00;94764.47;5036384;28;20423;-82
2023/09/15 00:20:13;;;;;;;18.65;11.23;;;;;;;16.08;100.00;94767.19;5035175;28;20030;-82
2023/09/15 00:22:49;;;;;;;19.38;9.85;;;;;;;16.42;100.00;94764.47;5035147;28;20044;-82
2023/09/15 00:25:19;;;;;;;14.65;10.48;;;;;;;16.49;100.00;94759.56;5034940;28;20430;-82
2023/09/15 00:27:46;;;;;;;26.02;9.93;;;;;;;16.36;100.00;94758.50;5034969;28;20033;-82
2023/09/15 00:30:16;;;;;;;19.95;11.32;;;;;;;16.11;100.00;94760.56;5051886;28;20422;-82
2023/09/15 00:32:42;;;;;;;23.15;10.77;;;;;;;16.02;100.00;94759.66;5018693;28;20040;-82
2023/09/15 00:35:08;;;;;;;16.30;10.68;;;;;;;15.89;100.00;94750.59;5053766;28;20049;-82
2023/09/15 00:37:33;;;;;;;14.52;10.43;;;;;;;16.13;100.00;94755.75;5057418;28;20052;-82
2023/09/15 00:39:58;;;;;;;18.45;11.13;;;;;;;16.48;100.00;94747.44;5058556;28;20024;-82
2023/09/15 00:42:27;;;;;;;18.05;10.25;;;;;;;16.30;100.00;94752.53;5041002;28;20127;-82
2023/09/15 00:44:52;;;;;;;16.25;10.05;;;;;;;16.37;100.00;94749.50;5040787;28;20338;-82
2023/09/15 00:47:18;;;;;;;15.63;10.18;;;;;;;16.58;100.00;94757.03;5058077;28;20029;-82
2023/09/15 00:49:47;;;;;;;18.58;11.40;;;;;;;16.28;100.00;94761.84;5057457;28;20036;-82
2023/09/15 00:52:13;;;;;;;22.00;12.70;;;;;;;15.86;100.00;94762.53;5056675;28;20044;-82
2023/09/15 00:54:40;;;;;;;26.90;12.65;;;;;;;15.75;100.00;94769.06;5057581;28;20036;-82
2023/09/15 00:57:06;;;;;;;25.83;12.48;;;;;;;15.87;100.00;94765.97;5057013;28;20027;-82
2023/09/15 00:59:32;;;;;;;16.67;11.93;;;;;;;15.99;100.00;94762.88;5040701;28;20434;-82
2023/09/15 01:01:58;;;;;;;20.52;11.45;;;;;;;16.08;100.00;94763.78;5057151;28;20025;-82
2023/09/15 01:04:24;;;;;;;18.52;11.43;;;;;;;16.28;100.00;94754.66;5056942;28;20029;-82
2023/09/15 01:10:12;;;;;;;23.77;11.65;;;;;;;15.85;100.00;94758.31;5058062;28;20122;-82
2023/09/15 01:12:38;;;;;;;20.67;12.73;;;;;;;15.79;100.00;94759.50;5036735;28;20030;-82
2023/09/15 01:15:03;;;;;;;20.30;12.15;;;;;;;15.88;100.00;94751.69;5045815;28;20442;-82
2023/09/15 01:17:32;;;;;;;18.70;12.10;;;;;;;16.03;100.00;94759.38;5053852;28;20029;-82
2023/09/15 01:20:09;;;;;;;18.52;11.98;;;;;;;16.23;100.00;94754.78;5053875;28;20036;-82
2023/09/15 01:23:05;;;;;;;15.82;11.77;;;;;;;16.36;100.00;94756.63;5054281;28;20029;-82
2023/09/15 01:25:40;;;;;;;23.45;11.25;;;;;;;16.44;100.00;94757.81;5053769;28;20198;-82
2023/09/15 01:28:30;;;;;;;17.67;11.40;;;;;;;16.49;100.00;94752.41;5053656;28;20029;-82
2023/09/15 01:30:56;;;;;;;21.20;12.00;;;;;;;16.04;100.00;94760.13;5054930;28;20029;-82
2023/09/15 01:33:21;;;;;;;16.73;11.25;;;;;;;16.08;100.00;94755.84;5053716;28;20519;-82
2023/09/15 01:35:47;;;;;;;17.17;9.65;;;;;;;16.40;100.00;94762.91;5053630;28;20435;-82
2023/09/15 01:38:12;;;;;;;20.70;11.85;;;;;;;16.17;100.00;94759.38;5053578;28;20033;-82
2023/09/15 01:40:38;;;;;;;16.90;11.00;;;;;;;16.27;100.00;94761.03;5053537;28;20033;-83
2023/09/15 01:43:03;;;;;;;18.00;10.85;;;;;;;16.44;100.00;94767.63;5054813;28;20025;-82
2023/09/15 01:45:29;;;;;;;14.05;10.77;;;;;;;16.42;100.00;94762.63;5053413;28;20025;-82
2023/09/15 01:47:55;;;;;;;20.58;11.25;;;;;;;16.07;100.00;94764.88;5053389;28;20097;-82
2023/09/15 01:50:21;;;;;;;24.98;12.20;;;;;;;15.82;100.00;94772.88;5053437;28;20112;-82
2023/09/15 01:52:47;;;;;;;20.00;12.15;;;;;;;15.88;100.00;94770.19;5053281;28;20064;-82
2023/09/15 01:55:13;;;;;;;16.58;11.45;;;;;;;16.04;100.00;94778.63;5036817;28;20115;-82
2023/09/15 01:57:38;;;;;;;17.80;11.50;;;;;;;16.23;100.00;94771.44;5053126;28;20349;-82
2023/09/15 02:00:06;;;;;;;19.85;12.07;;;;;;;16.09;100.00;94771.41;5053241;28;20035;-82
2023/09/15 02:02:31;;;;;;;21.52;11.88;;;;;;;15.96;100.00;94772.16;5053196;28;20115;-82
2023/09/15 02:04:57;;;;;;;24.98;13.35;;;;;;;15.89;100.00;94771.75;5053076;28;20027;-82
2023/09/15 02:07:22;;;;;;;20.90;12.27;;;;;;;15.79;100.00;94759.50;5053106;28;20028;-82
2023/09/15 02:09:47;;;;;;;22.63;12.57;;;;;;;15.77;100.00;94764.25;5053047;28;20450;-82
2023/09/15 02:12:13;;;;;;;17.95;12.98;;;;;;;15.78;100.00;94763.19;5052979;28;20033;-82
2023/09/15 02:14:38;;;;;;;23.25;12.50;;;;;;;15.66;100.00;94767.09;5054395;28;20033;-82
2023/09/15 02:17:04;;;;;;;19.05;11.52;;;;;;;15.85;100.00;94763.63;5052867;28;20485;-82
2023/09/15 02:19:30;;;;;;;15.30;10.60;;;;;;;15.95;100.00;94765.31;5053042;28;20032;-82
2023/09/15 02:21:56;;;;;;;18.00;11.00;;;;;;;16.11;100.00;94765.84;5054130;28;20040;-82
2023/09/15 02:24:21;;;;;;;19.48;10.77;;;;;;;15.90;100.00;94754.84;5053379;28;20120;-82
2023/09/15 02:26:47;;;;;;;20.65;12.05;;;;;;;15.45;100.00;94752.63;5052819;28;20028;-82
2023/09/15 02:29:13;;;;;;;18.98;12.63;;;;;;;15.44;100.00;94754.50;5053904;28;20028;-82
2023/09/15 02:31:40;;;;;;;16.02;11.75;;;;;;;15.74;100.00;94757.72;5052720;28;20029;-82
2023/09/15 02:34:05;;;;;;;15.68;10.55;;;;;;;15.67;100.00;94752.03;5052854;28;20058;-82
2023/09/15 02:36:30;;;;;;;17.00;11.40;;;;;;;15.57;100.00;94747.69;5053793;28;20036;-82
2023/09/15 02:38:56;;;;;;;18.00;11.98;;;;;;;15.65;100.00;94740.97;5052520;28;20442;-82
2023/09/15 02:41:22;;;;;;;21.70;11.85;;;;;;;15.84;100.00;94752.25;5052525;28;20037;-82
2023/09/15 02:43:47;;;;;;;21.80;12.70;;;;;;;15.84;100.00;94752.25;5052805;28;20108;-82
2023/09/15 02:46:13;;;;;;;26.73;13.55;;;;;;;15.70;100.00;94751.44;5052662;28;20036;-82
2023/09/15 02:48:39;;;;;;;20.38;12.32;;;;;;;16.01;100.00;94760.72;5036145;28;20031;-82
2023/09/15 02:51:04;;;;;;;21.45;14.07;;;;;;;15.48;100.00;94754.69;5052549;28;20056;-82
2023/09/15 02:53:30;;;;;;;27.08;14.25;;;;;;;15.32;100.00;94757.56;5052642;28;20104;-82
2023/09/15 02:55:56;;;;;;;26.00;14.57;;;;;;;15.46;100.00;94755.00;5052671;28;20138;-82
2023/09/15 02:58:22;;;;;;;25.48;15.10;;;;;;;15.51;100.00;94754.13;5052401;28;20398;-82
2023/09/15 03:00:48;;;;;;;30.05;16.58;;;;;;;15.51;100.00;94751.50;5036004;28;20039;-82
2023/09/15 03:03:14;;;;;;;30.92;15.35;;;;;;;15.51;100.00;94740.94;5052367;28;20036;-82
2023/09/15 03:05:39;;;;;;;23.60;16.77;;;;;;;15.45;100.00;94747.34;5053627;28;20032;-82
2023/09/15 03:08:05;;;;;;;24.85;15.68;;;;;;;15.58;100.00;94741.34;5056224;28;20029;-82
2023/09/15 03:10:34;;;;;;;23.42;14.52;;;;;;;15.71;100.00;94739.03;5055074;28;20029;-82
2023/09/15 03:12:59;;;;;;;25.73;14.98;;;;;;;15.77;100.00;94736.00;5055195;28;20029;-82
2023/09/15 03:15:24;;;;;;;21.83;13.43;;;;;;;15.86;100.00;94738.00;5054873;28;20037;-82
2023/09/15 03:17:50;;;;;;;23.45;13.63;;;;;;;15.92;100.00;94732.34;5055577;28;20029;-82
2023/09/15 03:20:16;;;;;;;22.42;14.75;;;;;;;15.58;100.00;94733.41;5054983;28;20048;-82
2023/09/15 03:22:42;;;;;;;25.77;14.65;;;;;;;15.44;100.00;94732.59;5054811;28;20457;-82
2023/09/15 03:25:08;;;;;;;24.52;14.90;;;;;;;15.46;100.00;94723.31;5054834;28;20434;-82
2023/09/15 03:27:34;;;;;;;28.55;15.15;;;;;;;15.46;100.00;94727.81;5071693;28;20033;-82
2023/09/15 03:29:59;;;;;;;21.73;14.40;;;;;;;15.52;100.00;94724.03;5054978;28;20427;-82
2023/09/15 03:32:25;;;;;;;21.17;14.23;;;;;;;15.69;100.00;94720.81;5038534;28;20434;-82
2023/09/15 03:34:53;;;;;;;25.60;14.10;;;;;;;15.82;100.00;94727.97;5056862;28;20029;-82
2023/09/15 03:37:19;;;;;;;20.73;13.88;;;;;;;15.78;100.00;94731.50;5058667;28;20025;-82
2023/09/15 03:39:44;;;;;;;22.02;14.40;;;;;;;15.86;100.00;94725.53;5059839;28;20025;-82
2023/09/15 03:42:10;;;;;;;21.35;14.20;;;;;;;15.90;100.00;94715.97;5042416;28;20111;-82
2023/09/15 03:44:35;;;;;;;23.90;14.88;;;;;;;15.90;100.00;94723.16;5042084;28;20025;-82
2023/09/15 03:47:00;;;;;;;24.10;15.52;;;;;;;15.87;100.00;94719.19;5058752;28;20055;-82
2023/09/15 03:49:26;;;;;;;27.27;15.50;;;;;;;15.95;100.00;94715.91;5042032;28;20031;-82
2023/09/15 03:51:52;;;;;;;26.67;16.90;;;;;;;15.92;100.00;94723.63;5059910;28;20025;-82
2023/09/15 03:54:17;;;;;;;23.77;16.10;;;;;;;15.97;100.00;94726.16;5041927;28;20028;-82
2023/09/15 03:56:43;;;;;;;32.92;19.08;;;;;;;16.18;100.00;94723.94;5059511;28;20025;-82
2023/09/15 03:59:08;;;;;;;27.52;17.38;;;;;;;16.25;100.00;94718.25;5041778;28;20380;-82
2023/09/15 04:01:33;;;;;;;29.77;18.45;;;;;;;16.14;100.00;94722.16;5058217;28;20025;-83
2023/09/15 04:04:01;;;;;;;35.33;19.85;;;;;;;15.95;100.00;94726.47;5038311;28;20024;-83
2023/09/15 04:06:28;;;;;;;28.73;18.35;;;;;;;16.17;100.00;94719.72;5054970;28;20017;-82
2023/09/15 04:08:54;;;;;;;29.23;17.92;;;;;;;16.30;100.00;94722.66;5057883;28;20024;-82
2023/09/15 04:11:19;;;;;;;26.05;16.33;;;;;;;16.27;100.00;94725.91;5059236;28;20453;-83
2023/09/15 04:13:44;;;;;;;30.52;16.65;;;;;;;16.44;100.00;94722.66;5057902;28;20031;-83
2023/09/15 04:16:10;;;;;;;30.17;16.88;;;;;;;16.47;100.00;94724.72;5057937;28;20163;-83
2023/09/15 04:18:35;;;;;;;29.40;17.27;;;;;;;16.05;100.00;94724.69;5057690;28;20029;-83
2023/09/15 04:21:00;;;;;;;26.25;16.27;;;;;;;16.06;100.00;94724.44;5057918;28;20047;-83
2023/09/15 04:23:26;;;;;;;23.60;15.25;;;;;;;16.23;100.00;94721.22;5057888;28;20025;-82
2023/09/15 04:25:51;;;;;;;27.58;14.93;;;;;;;16.34;100.00;94716.50;5057560;28;20029;-82
2023/09/15 04:28:17;;;;;;;23.17;14.10;;;;;;;16.45;100.00;94719.72;5053386;28;20033;-82
2023/09/15 04:30:42;;;;;;;23.67;14.25;;;;;;;16.55;100.00;94710.78;5038982;28;20029;-82
2023/09/15 04:33:08;;;;;;;24.13;16.13;;;;;;;16.14;100.00;94704.47;5054363;28;20099;-82
2023/09/15 04:35:33;;;;;;;31.95;17.30;;;;;;;15.68;100.00;94711.31;5054263;28;20036;-82
2023/09/15 04:37:58;;;;;;;31.40;18.00;;;;;;;15.55;100.00;94697.03;5037735;28;20025;-82
2023/09/15 04:40:24;;;;;;;34.95;17.95;;;;;;;15.46;100.00;94704.03;5037857;28;20022;-82
2023/09/15 04:42:50;;;;;;;28.20;16.85;;;;;;;15.72;100.00;94706.25;5054243;28;20025;-82
2023/09/15 04:45:15;;;;;;;24.92;16.30;;;;;;;15.84;100.00;94701.28;5038462;28;20335;-81
2023/09/15 04:47:40;;;;;;;27.52;15.50;;;;;;;15.97;100.00;94697.09;5053492;28;20029;-81
2023/09/15 04:50:08;;;;;;;23.80;15.20;;;;;;;16.11;100.00;94703.16;5038631;28;20025;-81
2023/09/15 04:52:33;;;;;;;30.15;17.27;;;;;;;15.82;100.00;94708.72;5037390;28;20026;-81
2023/09/15 04:54:59;;;;;;;36.67;18.85;;;;;;;15.74;100.00;94712.03;5051338;28;20082;-81
2023/09/15 04:57:24;;;;;;;30.73;18.27;;;;;;;15.79;100.00;94719.88;5058208;28;20028;-81
2023/09/15 04:59:53;;;;;;;37.40;19.58;;;;;;;15.53;100.00;94717.66;5040534;28;20028;-81
2023/09/15 05:02:19;;;;;;;36.50;20.20;;;;;;;15.50;100.00;94726.16;5058598;28;20059;-80
2023/09/15 05:04:45;;;;;;;38.25;21.25;;;;;;;15.49;100.00;94741.22;5057143;28;20035;-81
2023/09/15 05:07:11;;;;;;;31.60;19.35;;;;;;;15.48;100.00;94741.50;5058167;28;20438;-81
2023/09/15 05:09:36;;;;;;;37.33;20.38;;;;;;;15.73;100.00;94744.78;5057838;28;20204;-81
2023/09/15 05:12:02;;;;;;;40.58;22.70;;;;;;;15.71;100.00;94739.03;5056966;28;20029;-81
2023/09/15 05:14:27;;;;;;;41.80;22.90;;;;;;;15.66;100.00;94743.31;5057341;28;20067;-81
2023/09/15 05:16:54;;;;;;;36.80;22.23;;;;;;;15.50;100.00;94747.28;5056682;28;20126;-81
2023/09/15 05:19:19;;;;;;;47.17;23.92;;;;;;;15.58;100.00;94746.63;5056757;28;20029;-81
2023/09/15 05:21:45;;;;;;;45.10;23.15;;;;;;;15.66;100.00;94750.44;5057968;28;20106;-81
2023/09/15 05:24:10;;;;;;;33.03;20.67;;;;;;;15.75;100.00;94750.56;5056419;28;20029;-81
2023/09/15 05:26:35;;;;;;;40.90;21.02;;;;;;;15.76;100.00;94754.78;5056510;28;20025;-81
2023/09/15 05:29:03;;;;;;;39.78;21.50;;;;;;;15.64;100.00;94756.03;5056656;28;20135;-82
2023/09/15 05:31:29;;;;;;;36.83;20.58;;;;;;;15.72;100.00;94759.88;5057792;28;20032;-81
2023/09/15 05:33:55;;;;;;;29.60;18.98;;;;;;;15.76;100.00;94768.78;5056695;28;20029;-82
2023/09/15 05:36:21;;;;;;;30.90;19.67;;;;;;;16.10;100.00;94766.91;5056533;28;20319;-81
2023/09/15 05:38:48;;;;;;;29.10;17.70;;;;;;;16.43;100.00;94777.41;5056345;28;20024;-83
2023/09/15 05:41:13;;;;;;;29.38;18.95;;;;;;;16.13;100.00;94770.81;5039806;28;20442;-81
2023/09/15 05:43:39;;;;;;;33.45;17.35;;;;;;;16.20;100.00;94784.44;5056309;28;20036;-81
2023/09/15 05:46:05;;;;;;;23.10;15.95;;;;;;;16.42;100.00;94782.97;5056315;28;20025;-81
2023/09/15 05:48:30;;;;;;;28.67;17.90;;;;;;;16.59;100.00;94783.19;5056111;28;20047;-81
2023/09/15 05:50:56;;;;;;;24.95;15.60;;;;;;;16.95;100.00;94782.44;5056006;28;20029;-81
2023/09/15 05:53:21;;;;;;;22.67;15.18;;;;;;;17.44;100.00;94786.47;5056137;28;20405;-81
2023/09/15 05:55:47;;;;;;;21.02;13.82;;;;;;;17.62;100.00;94772.25;5055954;28;20405;-81
2023/09/15 05:58:13;;;;;;;19.17;11.50;;;;;;;17.77;100.00;94773.75;5055035;28;20052;-81
2023/09/15 06:00:40;;;;;;;19.98;12.88;;;;;;;17.75;100.00;94770.63;5056089;28;20032;-81
2023/09/15 06:03:05;;;;;;;16.23;10.50;;;;;;;17.75;100.00;94761.88;5055916;28;20024;-81
2023/09/15 06:05:30;;;;;;;20.02;11.32;;;;;;;17.74;100.00;94766.41;5055907;28;20028;-84
2023/09/15 06:07:56;;;;;;;17.25;10.10;;;;;;;17.48;100.00;94766.22;5055836;28;20029;-82
2023/09/15 06:10:21;;;;;;;16.38;10.23;;;;;;;17.46;100.00;94766.53;5055888;28;20033;-82
2023/09/15 06:12:50;;;;;;;21.70;12.15;;;;;;;17.59;100.00;94767.56;5056059;28;20025;-82
2023/09/15 06:15:16;;;;;;;20.20;11.70;;;;;;;17.52;100.00;94770.63;5055641;28;20031;-82
2023/09/15 06:17:42;;;;;;;17.65;10.77;;;;;;;17.14;100.00;94768.28;5055435;28;20446;-82
2023/09/15 06:20:08;;;;;;;15.32;10.05;;;;;;;17.38;100.00;94772.53;5055396;28;20473;-82
2023/09/15 06:22:34;;;;;;;17.38;11.43;;;;;;;17.31;100.00;94767.66;5039285;28;20354;-82
2023/09/15 06:25:00;;;;;;;20.00;12.70;;;;;;;17.34;100.00;94771.59;5055678;28;20028;-82
2023/09/15 06:27:26;;;;;;;17.90;11.02;;;;;;;17.73;100.00;94779.94;5055724;28;20446;-82
2023/09/15 06:29:55;;;;;;;25.60;14.98;;;;;;;17.59;100.00;94772.84;5055595;28;20029;-82
2023/09/15 06:32:21;;;;;;;22.67;13.00;;;;;;;17.89;100.00;94772.41;5055614;28;20115;-82
2023/09/15 06:34:46;;;;;;;29.20;15.63;;;;;;;17.84;100.00;94768.03;5055489;28;20107;-83
2023/09/15 06:37:12;;;;;;;19.83;13.65;;;;;;;18.47;100.00;94772.53;5055395;28;20029;-82
2023/09/15 06:39:37;;;;;;;19.52;11.70;;;;;;;18.16;100.00;94771.47;5055623;28;20445;-82
2023/09/15 06:42:08;;;;;;;19.10;12.63;;;;;;;18.45;100.00;94770.19;5055581;28;20024;-82
2023/09/15 06:44:34;;;;;;;17.60;12.32;;;;;;;18.82;100.00;94777.16;5055486;28;20021;-82
2023/09/15 06:46:59;;;;;;;18.35;12.15;;;;;;;18.86;100.00;94778.84;5038509;28;20025;-82
2023/09/15 06:49:26;;;;;;;17.75;11.80;;;;;;;19.16;100.00;94779.09;5055301;28;20017;-82
2023/09/15 06:51:52;;;;;;;15.88;10.82;;;;;;;19.14;100.00;94786.56;5056499;28;20390;-83
2023/09/15 06:54:18;;;;;;;16.83;10.52;;;;;;;19.45;100.00;94782.22;5055284;28;20032;-82
2023/09/15 06:56:43;;;;;;;15.40;11.27;;;;;;;19.52;100.00;94787.84;5055073;28;20029;-82
2023/09/15 06:59:11;;;;;;;16.75;11.20;;;;;;;19.61;100.00;94791.25;5056585;28;20103;-82
2023/09/15 07:01:37;;;;;;;17.58;9.80;;;;;;;20.08;100.00;94781.81;5038780;28;20021;-83
2023/09/15 07:04:03;;;;;;;13.65;9.85;;;;;;;20.03;100.00;94782.00;5055181;28;20021;-83
2023/09/15 07:06:29;;;;;;;18.83;10.13;;;;;;;19.88;100.00;94778.72;5055253;28;20017;-83
2023/09/15 07:08:54;;;;;;;14.48;9.73;;;;;;;20.35;100.00;94787.84;5055472;28;20327;-83
2023/09/15 07:11:19;;;;;;;15.82;8.95;;;;;;;20.58;100.00;94791.00;5059255;28;20025;-83
2023/09/15 07:13:45;;;;;;;14.60;8.90;;;;;;;20.64;100.00;94794.28;5059310;28;20338;-83
2023/09/15 07:16:10;;;;;;;15.40;10.07;;;;;;;20.63;100.00;94795.38;5059052;28;20033;-83
2023/09/15 07:18:36;;;;;;;18.02;9.35;;;;;;;20.66;100.00;94800.09;5060003;28;20112;-83
2023/09/15 07:21:02;;;;;;;21.65;10.30;;;;;;;20.16;100.00;94794.31;5059126;28;20033;-83
2023/09/15 07:23:27;;;;;;;16.23;9.05;;;;;;;20.12;100.00;94804.03;5042634;28;20028;-83
2023/09/15 07:25:53;;;;;;;19.40;10.27;;;;;;;19.83;100.00;94804.69;5058877;28;20120;-83
2023/09/15 07:28:18;;;;;;;19.05;10.48;;;;;;;20.11;100.00;94804.34;5059998;28;20024;-83
2023/09/15 07:30:43;;;;;;;12.05;8.68;;;;;;;20.29;100.00;94805.09;5059967;28;20029;-83
2023/09/15 07:33:09;;;;;;;25.48;10.50;;;;;;;19.75;100.00;94808.91;5059937;28;20029;-83
2023/09/15 07:35:38;;;;;;;21.42;9.05;;;;;;;19.82;100.00;94814.56;5059883;28;20513;-83
2023/09/15 07:38:04;;;;;;;14.75;9.05;;;;;;;20.18;100.00;94813.41;5058639;28;20043;-83
2023/09/15 07:40:29;;;;;;;17.15;9.25;;;;;;;20.49;100.00;94806.25;5058719;28;20032;-83
2023/09/15 07:42:55;;;;;;;13.00;8.93;;;;;;;19.90;100.00;94808.44;5058552;28;20116;-82
2023/09/15 07:45:21;;;;;;;15.50;8.75;;;;;;;19.91;100.00;94809.22;5058818;28;20154;-82
2023/09/15 07:47:49;;;;;;;15.63;8.50;;;;;;;20.40;100.00;94806.28;5058496;28;20035;-82
2023/09/15 07:50:17;;;;;;;13.65;8.15;;;;;;;20.58;100.00;94814.97;5058510;28;20024;-82
2023/09/15 07:52:44;;;;;;;12.63;7.70;;;;;;;20.84;100.00;94805.34;5058411;28;20032;-82
2023/09/15 07:55:09;;;;;;;16.40;8.93;;;;;;;20.59;100.00;94813.91;5059724;28;20464;-83
2023/09/15 07:57:37;;;;;;;13.00;7.22;;;;;;;21.18;100.00;94816.88;5058288;28;20083;-82
2023/09/15 08:00:04;;;;;;;15.38;8.25;;;;;;;21.05;100.00;94819.47;5058427;28;20031;-82
2023/09/15 08:02:31;;;;;;;10.77;8.15;;;;;;;21.46;100.00;94830.47;5042278;28;20025;-83
2023/09/15 08:04:56;;;;;;;15.75;7.50;;;;;;;22.05;100.00;94829.84;5058486;28;20051;-83
2023/09/15 08:07:22;;;;;;;12.25;6.93;;;;;;;22.72;100.00;94827.06;5057993;28;20079;-83
2023/09/15 08:09:47;;;;;;;14.55;9.20;;;;;;;22.36;100.00;94826.66;5059337;28;20028;-83
2023/09/15 08:12:13;;;;;;;18.55;10.60;;;;;;;22.25;100.00;94828.22;5058072;28;20025;-83
2023/09/15 08:14:40;;;;;;;13.98;8.55;;;;;;;21.16;100.00;94827.88;5058220;28;20025;-83
2023/09/15 08:17:06;;;;;;;26.02;13.98;;;;;;;21.28;100.00;94834.34;5041649;28;20129;-83
2023/09/15 08:19:31;;;;;;;20.90;13.57;;;;;;;21.40;100.00;94834.44;5057902;28;20032;-82
2023/09/15 08:22:00;;;;;;;24.23;15.00;;;;;;;21.54;100.00;94834.19;5056878;28;20029;-82
2023/09/15 08:24:26;;;;;;;20.63;14.10;;;;;;;21.29;100.00;94831.38;5057900;28;20036;-83
2023/09/15 08:26:51;;;;;;;25.83;15.15;;;;;;;20.83;100.00;94841.81;5058893;28;20029;-83
2023/09/15 08:29:16;;;;;;;25.38;17.38;;;;;;;21.13;100.00;94844.47;5041717;28;20025;-82
2023/09/15 08:31:42;;;;;;;29.17;18.45;;;;;;;21.11;100.00;94849.34;5057700;28;20450;-83
2023/09/15 08:34:07;;;;;;;44.03;30.02;;;;;;;20.17;100.00;94850.97;5057658;28;20104;-83
2023/09/15 08:36:33;;;;;;;42.58;26.65;;;;;;;20.59;100.00;94855.69;5057579;28;20090;-83
2023/09/15 08:39:02;;;;;;;45.40;27.65;;;;;;;20.69;100.00;94857.22;5057701;28;20071;-82
2023/09/15 08:42:01;;;;;;;39.50;27.80;;;;;;;20.56;100.00;94859.75;5057651;28;20025;-83
2023/09/15 08:44:31;;;;;;;40.85;28.55;;;;;;;20.53;100.00;94865.72;5044719;28;20136;-83
2023/09/15 08:46:56;;;;;;;43.03;30.63;;;;;;;20.83;100.00;94855.13;5057385;28;20124;-83
2023/09/15 08:49:23;;;;;;;52.10;31.05;;;;;;;21.15;100.00;94865.47;5057434;28;20489;-83
2023/09/15 08:51:49;;;;;;;45.03;32.15;;;;;;;20.56;100.00;94865.09;5057716;28;20055;-83
2023/09/15 08:54:14;;;;;;;51.80;34.20;;;;;;;20.24;100.00;94859.25;5057324;28;20025;-83
2023/09/15 08:56:40;;;;;;;57.33;36.92;;;;;;;20.20;100.00;94856.41;5057217;28;20082;-82
2023/09/15 08:59:06;;;;;;;49.22;33.90;;;;;;;20.60;100.00;94860.72;5040716;28;20020;-83
2023/09/15 09:01:32;;;;;;;48.03;30.85;;;;;;;21.05;100.00;94856.75;5074065;28;20052;-83
2023/09/15 09:03:58;;;;;;;51.60;32.25;;;;;;;21.35;100.00;94871.94;5057737;28;20025;-83
2023/09/15 09:06:24;;;;;;;45.42;30.73;;;;;;;21.45;100.00;94871.56;5040641;28;20124;-83
2023/09/15 09:08:49;;;;;;;52.92;35.42;;;;;;;20.55;100.00;94879.50;5040292;28;20533;-83
2023/09/15 09:11:15;;;;;;;46.58;30.55;;;;;;;20.95;100.00;94869.66;5040590;28;20021;-82
2023/09/15 09:13:40;;;;;;;55.30;36.13;;;;;;;20.70;100.00;94877.41;5040474;28;20025;-82
2023/09/15 09:16:10;;;;;;;55.38;35.75;;;;;;;20.99;100.00;94871.38;5056809;28;20094;-82
2023/09/15 09:18:36;;;;;;;52.28;32.92;;;;;;;21.70;100.00;94869.03;5040663;28;20438;-83
2023/09/15 09:21:04;;;;;;;49.22;33.05;;;;;;;21.56;100.00;94863.16;5056794;28;20025;-83
2023/09/15 09:23:30;;;;;;;46.70;31.23;;;;;;;21.84;100.00;94870.66;5056594;28;20082;-83
2023/09/15 09:25:55;;;;;;;51.95;32.92;;;;;;;21.58;100.00;94864.41;5056697;28;20020;-83
2023/09/15 09:28:21;;;;;;;63.40;39.97;;;;;;;20.57;100.00;94858.66;5039693;28;20025;-82
2023/09/15 09:30:46;;;;;;;64.97;39.03;;;;;;;19.66;100.00;94861.31;5056841;28;20051;-83
2023/09/15 09:33:12;;;;;;;66.60;40.83;;;;;;;19.53;100.00;94863.81;5056428;28;20024;-83
2023/09/15 09:35:38;;;;;;;65.05;39.30;;;;;;;20.43;100.00;94866.84;5039788;28;20033;-83
2023/09/15 09:38:05;;;;;;;65.80;40.60;;;;;;;20.96;100.00;94849.91;5056815;28;20053;-83
2023/09/15 09:40:33;;;;;;;63.10;38.20;;;;;;;21.65;100.00;94853.22;5057576;28;20039;-83
2023/09/15 09:42:59;;;;;;;68.70;39.88;;;;;;;21.30;100.00;94853.47;5056501;28;20040;-82
2023/09/15 09:45:29;;;;;;;61.67;37.80;;;;;;;21.37;100.00;94851.06;5056324;28;20438;-83
2023/09/15 09:47:55;;;;;;;61.03;36.92;;;;;;;21.30;100.00;94848.94;5056717;28;20036;-83
2023/09/15 09:50:21;;;;;;;61.05;37.00;;;;;;;21.87;100.00;94854.78;5056157;28;20091;-83
2023/09/15 09:52:47;;;;;;;51.35;34.35;;;;;;;22.11;100.00;94858.66;5039853;28;20033;-83
2023/09/15 09:55:13;;;;;;;50.00;32.35;;;;;;;22.42;100.00;94853.94;5039651;28;20120;-83
2023/09/15 09:57:38;;;;;;;53.55;33.88;;;;;;;22.00;100.00;94852.94;5056056;28;20068;-82
2023/09/15 10:00:05;;;;;;;58.17;36.03;;;;;;;21.43;100.00;94857.75;5056144;28;20036;-83
2023/09/15 10:02:31;;;;;;;62.88;36.03;;;;;;;20.84;100.00;94846.06;5057122;28;20036;-83
2023/09/15 10:04:56;;;;;;;49.08;31.38;;;;;;;21.05;100.00;94848.75;5056062;28;20430;-83
2023/09/15 10:07:22;;;;;;;53.55;34.13;;;;;;;20.92;100.00;94846.34;5056334;28;20411;-83
2023/09/15 10:09:47;;;;;;;55.15;35.58;;;;;;;20.14;100.00;94844.41;5072817;28;20430;-83
2023/09/15 10:12:14;;;;;;;52.63;32.83;;;;;;;20.61;100.00;94840.19;5055833;28;20040;-83
2023/09/15 10:14:40;;;;;;;53.05;32.72;;;;;;;20.91;100.00;94842.88;5055689;28;20449;-83
2023/09/15 10:17:06;;;;;;;47.75;29.40;;;;;;;21.46;100.00;94843.81;5055941;28;20338;-83
2023/09/15 10:19:32;;;;;;;44.58;26.02;;;;;;;22.14;100.00;94844.66;5039303;28;20081;-83
2023/09/15 10:21:57;;;;;;;37.33;25.80;;;;;;;22.31;100.00;94845.56;5039537;28;20119;-83
2023/09/15 10:24:23;;;;;;;41.38;27.05;;;;;;;22.38;100.00;94840.50;5055712;28;20338;-83
2023/09/15 10:26:48;;;;;;;38.30;24.73;;;;;;;22.37;100.00;94836.25;5055564;28;20021;-82
2023/09/15 10:29:14;;;;;;;39.28;24.40;;;;;;;22.28;100.00;94830.22;5056630;28;20025;-82
2023/09/15 10:31:52;;;;;;;35.25;22.63;;;;;;;22.60;100.00;94811.81;5055604;28;20024;-82
2023/09/15 10:34:17;;;;;;;32.40;21.60;;;;;;;22.56;100.00;94810.94;5055515;28;20465;-83
2023/09/15 10:36:43;;;;;;;35.50;22.25;;;;;;;22.63;100.00;94816.50;5055383;28;20029;-82
2023/09/15 10:39:17;;;;;;;32.53;20.35;;;;;;;22.98;100.00;94808.03;5055379;28;20377;-82
2023/09/15 10:41:43;;;;;;;32.35;19.80;;;;;;;23.19;100.00;94807.09;5055374;28;20060;-82
2023/09/15 10:44:08;;;;;;;32.97;20.77;;;;;;;22.98;100.00;94808.03;5054860;28;20090;-82
2023/09/15 10:46:36;;;;;;;29.02;19.10;;;;;;;23.41;100.00;94805.84;5055414;28;20029;-82
2023/09/15 10:49:19;;;;;;;30.48;19.67;;;;;;;24.21;100.00;94805.31;5056428;28;20067;-82
2023/09/15 10:52:01;;;;;;;26.48;17.63;;;;;;;24.87;100.00;94807.66;5055617;28;20032;-83
2023/09/15 10:54:31;;;;;;;26.55;16.67;;;;;;;25.76;100.00;94814.47;5055220;28;20430;-83
2023/09/15 10:56:57;;;;;;;24.60;17.33;;;;;;;26.22;100.00;94817.25;5055047;28;20052;-83
2023/09/15 10:59:24;;;;;;;22.70;15.60;;;;;;;25.96;100.00;94805.28;5055273;28;20055;-83
2023/09/15 11:01:50;;;;;;;19.40;12.88;;;;;;;24.60;100.00;94791.31;5055274;28;20035;-83
2023/09/15 11:04:22;;;;;;;19.10;12.10;;;;;;;25.68;100.00;94800.16;5055279;28;20099;-83
2023/09/15 11:06:49;;;;;;;18.42;11.32;;;;;;;25.86;100.00;94800.47;5055245;28;20350;-83
2023/09/15 11:09:15;;;;;;;21.55;11.82;;;;;;;25.43;100.00;94795.03;5055173;28;20060;-82